sensor_id;sensor_type;location;lat;lon;timestamp;pressure;altitude;pressure_sealevel;temperature;humidity
29433;BME280;16405;53.964;13.448;2024-03-08T00:00:46;102179.53;;;-0.85;100.00
29433;BME280;16405;53.964;13.448;2024-03-08T00:03:12;102184.03;;;-0.77;100.00
29433;BME280;16405;53.964;13.448;2024-03-08T00:05:38;102176.38;;;-0.73;100.00
29433;BME280;16405;53.964;13.448;2024-03-08T00:08:13;102180.72;;;-0.72;100.00
29433;BME280;16405;53.964;13.448;2024-03-08T00:10:39;102179.91;;;-0.69;100.00
29433;BME280;16405;53.964;13.448;2024-03-08T00:13:05;102179.03;;;-0.70;100.00
29433;BME280;16405;53.964;13.448;2024-03-08T00:15:39;102181.63;;;-0.70;100.00
29433;BME280;16405;53.964;13.448;2024-03-08T00:18:06;102172.13;;;-0.71;100.00
29433;BME280;16405;53.964;13.448;2024-03-08T00:20:32;102182.53;;;-0.68;100.00
29433;BME280;16405;53.964;13.448;2024-03-08T00:23:06;102181.72;;;-0.67;100.00
29433;BME280;16405;53.964;13.448;2024-03-08T00:25:32;102183.44;;;-0.66;100.00
29433;BME280;16405;53.964;13.448;2024-03-08T00:27:57;102179.13;;;-0.67;100.00
29433;BME280;16405;53.964;13.448;2024-03-08T00:30:25;102177.44;;;-0.65;100.00
29433;BME280;16405;53.964;13.448;2024-03-08T00:33:00;102177.44;;;-0.65;100.00
29433;BME280;16405;53.964;13.448;2024-03-08T00:35:26;102183.47;;;-0.64;100.00
29433;BME280;16405;53.964;13.448;2024-03-08T00:37:51;102183.53;;;-0.63;100.00
29433;BME280;16405;53.964;13.448;2024-03-08T00:40:17;102174.88;;;-0.63;100.00
29433;BME280;16405;53.964;13.448;2024-03-08T00:42:46;102179.22;;;-0.62;100.00
29433;BME280;16405;53.964;13.448;2024-03-08T00:45:15;102175.78;;;-0.63;100.00
29433;BME280;16405;53.964;13.448;2024-03-08T00:47:41;102173.94;;;-0.67;100.00
29433;BME280;16405;53.964;13.448;2024-03-08T00:50:10;102179.06;;;-0.68;100.00
29433;BME280;16405;53.964;13.448;2024-03-08T00:52:44;102179.88;;;-0.71;100.00
29433;BME280;16405;53.964;13.448;2024-03-08T00:55:10;102172.03;;;-0.74;100.00
29433;BME280;16405;53.964;13.448;2024-03-08T00:57:36;102172.03;;;-0.75;100.00
29433;BME280;16405;53.964;13.448;2024-03-08T01:00:10;102172.94;;;-0.72;100.00
29433;BME280;16405;53.964;13.448;2024-03-08T01:02:39;102162.59;;;-0.72;100.00
29433;BME280;16405;53.964;13.448;2024-03-08T01:05:09;102176.59;;;-0.64;100.00
29433;BME280;16405;53.964;13.448;2024-03-08T01:07:40;102165.44;;;-0.61;100.00
29433;BME280;16405;53.964;13.448;2024-03-08T01:10:06;102160.41;;;-0.55;100.00
29433;BME280;16405;53.964;13.448;2024-03-08T01:12:43;102165.72;;;-0.49;100.00
29433;BME280;16405;53.964;13.448;2024-03-08T01:15:11;102166.72;;;-0.42;100.00
29433;BME280;16405;53.964;13.448;2024-03-08T01:17:46;102160.72;;;-0.41;100.00
29433;BME280;16405;53.964;13.448;2024-03-08T01:20:25;102147.84;;;-0.38;100.00
29433;BME280;16405;53.964;13.448;2024-03-08T01:23:21;102146.19;;;-0.33;100.00
29433;BME280;16405;53.964;13.448;2024-03-08T01:25:50;102147.19;;;-0.28;100.00
29433;BME280;16405;53.964;13.448;2024-03-08T01:31:23;102133.56;;;-0.19;100.00
29433;BME280;16405;53.964;13.448;2024-03-08T01:33:50;102140.56;;;-0.13;100.00
29433;BME280;16405;53.964;13.448;2024-03-08T01:36:33;102137.97;;;-0.13;100.00
29433;BME280;16405;53.964;13.448;2024-03-08T01:39:26;102128.38;;;-0.17;100.00
29433;BME280;16405;53.964;13.448;2024-03-08T01:41:52;102124.06;;;-0.18;100.00
29433;BME280;16405;53.964;13.448;2024-03-08T01:44:42;102130.06;;;-0.19;100.00
29433;BME280;16405;53.964;13.448;2024-03-08T01:47:11;102124.03;;;-0.22;100.00
29433;BME280;16405;53.964;13.448;2024-03-08T01:49:53;102119.63;;;-0.26;100.00
29433;BME280;16405;53.964;13.448;2024-03-08T01:52:39;102115.28;;;-0.27;100.00
29433;BME280;16405;53.964;13.448;2024-03-08T01:55:12;102113.50;;;-0.29;100.00
29433;BME280;16405;53.964;13.448;2024-03-08T01:57:53;102113.47;;;-0.31;100.00
29433;BME280;16405;53.964;13.448;2024-03-08T02:00:31;102110.09;;;-0.27;100.00
29433;BME280;16405;53.964;13.448;2024-03-08T02:03:11;102115.34;;;-0.24;100.00
29433;BME280;16405;53.964;13.448;2024-03-08T02:05:49;102105.00;;;-0.24;100.00
29433;BME280;16405;53.964;13.448;2024-03-08T02:08:17;102103.31;;;-0.22;100.00
29433;BME280;16405;53.964;13.448;2024-03-08T02:11:13;102104.13;;;-0.23;100.00
29433;BME280;16405;53.964;13.448;2024-03-08T02:14:21;102103.22;;;-0.25;100.00
29433;BME280;16405;53.964;13.448;2024-03-08T02:17:13;102099.69;;;-0.30;100.00
29433;BME280;16405;53.964;13.448;2024-03-08T02:19:53;102104.78;;;-0.33;100.00
29433;BME280;16405;53.964;13.448;2024-03-08T02:22:22;102102.97;;;-0.37;100.00
29433;BME280;16405;53.964;13.448;2024-03-08T02:25:02;102096.03;;;-0.41;100.00
29433;BME280;16405;53.964;13.448;2024-03-08T02:31:13;102092.31;;;-0.52;100.00
29433;BME280;16405;53.964;13.448;2024-03-08T02:34:34;102083.59;;;-0.57;100.00
29433;BME280;16405;53.964;13.448;2024-03-08T02:37:02;102086.13;;;-0.59;100.00
29433;BME280;16405;53.964;13.448;2024-03-08T02:39:43;102088.69;;;-0.60;100.00
29433;BME280;16405;53.964;13.448;2024-03-08T02:42:23;102083.47;;;-0.64;100.00
29433;BME280;16405;53.964;13.448;2024-03-08T02:48:33;102085.00;;;-0.72;100.00
29433;BME280;16405;53.964;13.448;2024-03-08T02:51:43;102072.81;;;-0.77;100.00
29433;BME280;16405;53.964;13.448;2024-03-08T02:58:03;102077.72;;;-0.90;100.00
29433;BME280;16405;53.964;13.448;2024-03-08T03:00:32;102081.06;;;-0.94;100.00
29433;BME280;16405;53.964;13.448;2024-03-08T03:10:41;102071.44;;;-0.99;100.00
29433;BME280;16405;53.964;13.448;2024-03-08T03:16:31;102070.94;;;-0.85;100.00
29433;BME280;16405;53.964;13.448;2024-03-08T03:20:14;102067.81;;;-0.70;100.00
29433;BME280;16405;53.964;13.448;2024-03-08T03:36:47;102066.66;;;0.03;100.00
29433;BME280;16405;53.964;13.448;2024-03-08T03:39:17;102063.31;;;0.10;100.00
29433;BME280;16405;53.964;13.448;2024-03-08T03:41:48;102066.09;;;0.20;100.00
29433;BME280;16405;53.964;13.448;2024-03-08T03:44:18;102063.69;;;0.31;100.00
29433;BME280;16405;53.964;13.448;2024-03-08T03:46:43;102062.13;;;0.39;100.00
29433;BME280;16405;53.964;13.448;2024-03-08T03:49:19;102055.31;;;0.46;100.00
29433;BME280;16405;53.964;13.448;2024-03-08T03:51:44;102057.16;;;0.53;100.00
29433;BME280;16405;53.964;13.448;2024-03-08T03:54:18;102065.91;;;0.61;100.00
29433;BME280;16405;53.964;13.448;2024-03-08T03:56:44;102053.84;;;0.64;100.00
29433;BME280;16405;53.964;13.448;2024-03-08T03:59:10;102061.72;;;0.70;100.00
29433;BME280;16405;53.964;13.448;2024-03-08T04:01:45;102057.44;;;0.73;100.00
29433;BME280;16405;53.964;13.448;2024-03-08T04:04:11;102060.97;;;0.77;100.00
29433;BME280;16405;53.964;13.448;2024-03-08T04:06:38;102054.94;;;0.79;100.00
29433;BME280;16405;53.964;13.448;2024-03-08T04:09:03;102054.16;;;0.84;100.00
29433;BME280;16405;53.964;13.448;2024-03-08T04:11:39;102060.25;;;0.87;100.00
29433;BME280;16405;53.964;13.448;2024-03-08T04:14:05;102055.94;;;0.88;100.00
29433;BME280;16405;53.964;13.448;2024-03-08T04:16:31;102050.81;;;0.91;100.00
29433;BME280;16405;53.964;13.448;2024-03-08T04:19:07;102055.16;;;0.93;100.00
29433;BME280;16405;53.964;13.448;2024-03-08T04:21:33;102052.56;;;0.93;100.00
29433;BME280;16405;53.964;13.448;2024-03-08T04:23:59;102049.09;;;0.93;100.00
29433;BME280;16405;53.964;13.448;2024-03-08T04:26:25;102050.88;;;0.95;100.00
29433;BME280;16405;53.964;13.448;2024-03-08T04:28:54;102055.19;;;0.96;100.00
29433;BME280;16405;53.964;13.448;2024-03-08T04:31:22;102049.19;;;0.97;100.00
29433;BME280;16405;53.964;13.448;2024-03-08T04:33:48;102045.72;;;0.98;100.00
29433;BME280;16405;53.964;13.448;2024-03-08T04:36:14;102051.81;;;1.00;100.00
29433;BME280;16405;53.964;13.448;2024-03-08T04:38:51;102051.84;;;1.02;100.00
29433;BME280;16405;53.964;13.448;2024-03-08T04:41:17;102039.69;;;1.01;100.00
29433;BME280;16405;53.964;13.448;2024-03-08T04:43:45;102044.06;;;1.03;100.00
29433;BME280;16405;53.964;13.448;2024-03-08T04:46:17;102039.69;;;1.01;100.00
29433;BME280;16405;53.964;13.448;2024-03-08T04:48:43;102032.78;;;1.01;100.00
29433;BME280;16405;53.964;13.448;2024-03-08T04:51:09;102032.84;;;1.05;100.00
29433;BME280;16405;53.964;13.448;2024-03-08T04:53:35;102038.06;;;1.08;100.00
29433;BME280;16405;53.964;13.448;2024-03-08T04:56:01;102032.03;;;1.09;100.00
29433;BME280;16405;53.964;13.448;2024-03-08T04:58:35;102029.44;;;1.09;100.00
29433;BME280;16405;53.964;13.448;2024-03-08T05:01:02;102025.97;;;1.10;100.00
29433;BME280;16405;53.964;13.448;2024-03-08T05:03:28;102025.97;;;1.10;100.00
29433;BME280;16405;53.964;13.448;2024-03-08T05:05:54;102025.13;;;1.09;100.00
29433;BME280;16405;53.964;13.448;2024-03-08T05:08:28;102022.56;;;1.11;100.00
29433;BME280;16405;53.964;13.448;2024-03-08T05:10:54;102026.91;;;1.13;100.00
29433;BME280;16405;53.964;13.448;2024-03-08T05:13:27;102025.19;;;1.14;100.00
29433;BME280;16405;53.964;13.448;2024-03-08T05:16:00;102024.34;;;1.15;100.00
29433;BME280;16405;53.964;13.448;2024-03-08T05:18:31;102024.34;;;1.15;100.00
29433;BME280;16405;53.964;13.448;2024-03-08T05:20:57;102029.53;;;1.16;100.00
29433;BME280;16405;53.964;13.448;2024-03-08T05:23:23;102023.50;;;1.17;100.00
29433;BME280;16405;53.964;13.448;2024-03-08T05:25:50;102027.81;;;1.18;100.00
29433;BME280;16405;53.964;13.448;2024-03-08T05:28:16;102027.00;;;1.19;100.00
29433;BME280;16405;53.964;13.448;2024-03-08T05:30:41;102027.00;;;1.22;100.00
29433;BME280;16405;53.964;13.448;2024-03-08T05:33:15;102027.06;;;1.26;100.00
29433;BME280;16405;53.964;13.448;2024-03-08T05:35:41;102026.19;;;1.25;100.00
29433;BME280;16405;53.964;13.448;2024-03-08T05:38:06;102031.41;;;1.27;100.00
29433;BME280;16405;53.964;13.448;2024-03-08T05:40:32;102029.69;;;1.29;100.00
29433;BME280;16405;53.964;13.448;2024-03-08T05:43:06;102028.84;;;1.30;100.00
29433;BME280;16405;53.964;13.448;2024-03-08T05:45:34;102029.75;;;1.33;100.00
29433;BME280;16405;53.964;13.448;2024-03-08T05:48:00;102030.66;;;1.37;100.00
29433;BME280;16405;53.964;13.448;2024-03-08T05:50:34;102029.78;;;1.38;100.00
29433;BME280;16405;53.964;13.448;2024-03-08T05:53:02;102035.00;;;1.36;100.00
29433;BME280;16405;53.964;13.448;2024-03-08T05:55:27;102035.00;;;1.38;100.00
29433;BME280;16405;53.964;13.448;2024-03-08T05:58:02;102033.31;;;1.41;100.00
29433;BME280;16405;53.964;13.448;2024-03-08T06:00:28;102040.22;;;1.42;100.00
29433;BME280;16405;53.964;13.448;2024-03-08T06:02:56;102036.81;;;1.43;100.00
29433;BME280;16405;53.964;13.448;2024-03-08T06:05:31;102038.56;;;1.46;100.00
29433;BME280;16405;53.964;13.448;2024-03-08T06:07:57;102038.53;;;1.44;100.00
29433;BME280;16405;53.964;13.448;2024-03-08T06:10:23;102038.53;;;1.44;100.00
29433;BME280;16405;53.964;13.448;2024-03-08T06:12:49;102035.09;;;1.46;100.00
29433;BME280;16405;53.964;13.448;2024-03-08T06:15:20;102040.28;;;1.46;100.00
29433;BME280;16405;53.964;13.448;2024-03-08T06:17:48;102036.00;;;1.48;100.00
29433;BME280;16405;53.964;13.448;2024-03-08T06:20:14;102036.00;;;1.49;100.00
29433;BME280;16405;53.964;13.448;2024-03-08T06:22:40;102040.34;;;1.50;100.00
29433;BME280;16405;53.964;13.448;2024-03-08T06:25:11;102036.88;;;1.50;100.00
29433;BME280;16405;53.964;13.448;2024-03-08T06:27:43;102035.13;;;1.49;100.00
29433;BME280;16405;53.964;13.448;2024-03-08T06:30:10;102037.72;;;1.49;100.00
29433;BME280;16405;53.964;13.448;2024-03-08T06:32:41;102028.19;;;1.48;100.00
29433;BME280;16405;53.964;13.448;2024-03-08T06:35:11;102025.59;;;1.48;100.00
29433;BME280;16405;53.964;13.448;2024-03-08T06:37:37;102039.47;;;1.50;100.00
29433;BME280;16405;53.964;13.448;2024-03-08T06:40:10;102023.09;;;1.54;100.00
29433;BME280;16405;53.964;13.448;2024-03-08T06:42:40;102025.69;;;1.57;100.00
29433;BME280;16405;53.964;13.448;2024-03-08T06:45:15;102027.47;;;1.61;100.00
29433;BME280;16405;53.964;13.448;2024-03-08T06:47:46;102021.47;;;1.65;100.00
29433;BME280;16405;53.964;13.448;2024-03-08T06:50:21;102027.56;;;1.67;100.00
29433;BME280;16405;53.964;13.448;2024-03-08T06:52:47;102024.94;;;1.66;100.00
29433;BME280;16405;53.964;13.448;2024-03-08T06:55:21;102029.28;;;1.68;100.00
29433;BME280;16405;53.964;13.448;2024-03-08T06:57:47;102028.47;;;1.71;100.00
29433;BME280;16405;53.964;13.448;2024-03-08T07:00:13;102031.06;;;1.72;100.00
29433;BME280;16405;53.964;13.448;2024-03-08T07:02:51;102032.81;;;1.75;100.00
29433;BME280;16405;53.964;13.448;2024-03-08T07:05:21;102034.59;;;1.79;100.00
29433;BME280;16405;53.964;13.448;2024-03-08T07:07:57;102026.72;;;1.73;100.00
29433;BME280;16405;53.964;13.448;2024-03-08T07:10:24;102031.09;;;1.74;100.00
29433;BME280;16405;53.964;13.448;2024-03-08T07:12:59;102031.13;;;1.75;100.00
29433;BME280;16405;53.964;13.448;2024-03-08T07:15:27;102025.03;;;1.75;100.00
29433;BME280;16405;53.964;13.448;2024-03-08T07:18:01;102032.84;;;1.76;100.00
29433;BME280;16405;53.964;13.448;2024-03-08T07:20:27;102038.91;;;1.75;100.00
29433;BME280;16405;53.964;13.448;2024-03-08T07:22:54;102024.16;;;1.74;100.00
29433;BME280;16405;53.964;13.448;2024-03-08T07:25:20;102020.66;;;1.69;100.00
29433;BME280;16405;53.964;13.448;2024-03-08T07:27:54;102023.31;;;1.75;100.00
29433;BME280;16405;53.964;13.448;2024-03-08T07:30:24;102032.94;;;1.84;100.00
29433;BME280;16405;53.964;13.448;2024-03-08T07:34:04;102032.16;;;1.96;100.00
29433;BME280;16405;53.964;13.448;2024-03-08T07:36:41;102027.03;;;2.02;100.00
29433;BME280;16405;53.964;13.448;2024-03-08T07:39:10;102025.34;;;2.05;100.00
29433;BME280;16405;53.964;13.448;2024-03-08T07:41:48;102021.84;;;2.02;100.00
29433;BME280;16405;53.964;13.448;2024-03-08T07:44:14;102025.31;;;2.01;100.00
29433;BME280;16405;53.964;13.448;2024-03-08T07:46:40;102017.56;;;2.05;100.00
29433;BME280;16405;53.964;13.448;2024-03-08T07:49:11;102013.25;;;2.09;100.00
29433;BME280;16405;53.964;13.448;2024-03-08T07:51:38;102015.03;;;2.12;100.00
29433;BME280;16405;53.964;13.448;2024-03-08T07:54:04;102014.13;;;2.11;100.00
29433;BME280;16405;53.964;13.448;2024-03-08T07:56:33;102011.63;;;2.20;100.00
29433;BME280;16405;53.964;13.448;2024-03-08T07:59:08;102012.53;;;2.25;100.00
29433;BME280;16405;53.964;13.448;2024-03-08T08:01:34;102012.56;;;2.30;100.00
29433;BME280;16405;53.964;13.448;2024-03-08T08:04:09;102010.91;;;2.38;100.00
29433;BME280;16405;53.964;13.448;2024-03-08T08:06:40;102010.97;;;2.49;100.00
29433;BME280;16405;53.964;13.448;2024-03-08T08:09:17;102011.84;;;2.53;100.00
29433;BME280;16405;53.964;13.448;2024-03-08T08:11:54;102007.59;;;2.59;100.00
29433;BME280;16405;53.964;13.448;2024-03-08T08:14:20;102008.53;;;2.71;100.00
29433;BME280;16405;53.964;13.448;2024-03-08T08:16:47;102016.38;;;2.77;100.00
29433;BME280;16405;53.964;13.448;2024-03-08T08:19:14;102006.91;;;2.90;100.00
29433;BME280;16405;53.964;13.448;2024-03-08T08:21:51;102011.28;;;3.00;100.00
29433;BME280;16405;53.964;13.448;2024-03-08T08:24:17;102006.97;;;3.03;100.00
29433;BME280;16405;53.964;13.448;2024-03-08T08:26:48;102008.72;;;3.03;100.00
29433;BME280;16405;53.964;13.448;2024-03-08T08:29:14;102004.44;;;3.14;100.00
29433;BME280;16405;53.964;13.448;2024-03-08T08:31:40;102007.97;;;3.32;100.00
29433;BME280;16405;53.964;13.448;2024-03-08T08:34:06;102009.75;;;3.43;100.00
29433;BME280;16405;53.964;13.448;2024-03-08T08:36:32;102001.16;;;3.70;100.00
29433;BME280;16405;53.964;13.448;2024-03-08T08:39:09;102003.81;;;4.04;100.00
29433;BME280;16405;53.964;13.448;2024-03-08T08:41:46;102008.16;;;4.35;100.00
29433;BME280;16405;53.964;13.448;2024-03-08T08:44:12;102008.16;;;4.48;100.00
29433;BME280;16405;53.964;13.448;2024-03-08T08:46:39;102008.13;;;4.70;100.00
29433;BME280;16405;53.964;13.448;2024-03-08T08:49:05;102008.06;;;4.93;100.00
29433;BME280;16405;53.964;13.448;2024-03-08T08:51:37;102009.75;;;5.12;100.00
29433;BME280;16405;53.964;13.448;2024-03-08T08:54:03;101997.44;;;5.38;100.00
29433;BME280;16405;53.964;13.448;2024-03-08T08:56:29;102000.91;;;5.49;99.86
29433;BME280;16405;53.964;13.448;2024-03-08T08:59:06;102003.34;;;5.78;98.17
29433;BME280;16405;53.964;13.448;2024-03-08T09:01:46;102008.50;;;5.90;96.56
29433;BME280;16405;53.964;13.448;2024-03-08T09:04:16;102002.38;;;5.91;94.61
29433;BME280;16405;53.964;13.448;2024-03-08T09:06:45;101995.38;;;6.00;93.58
29433;BME280;16405;53.964;13.448;2024-03-08T09:09:13;102001.31;;;6.23;93.42
29433;BME280;16405;53.964;13.448;2024-03-08T09:11:42;101998.56;;;6.37;92.45
29433;BME280;16405;53.964;13.448;2024-03-08T09:14:08;101990.56;;;6.55;90.85
29433;BME280;16405;53.964;13.448;2024-03-08T09:16:35;101989.44;;;6.78;90.78
29433;BME280;16405;53.964;13.448;2024-03-08T09:19:05;101997.97;;;6.97;89.07
29433;BME280;16405;53.964;13.448;2024-03-08T09:21:33;102000.34;;;7.17;87.41
29433;BME280;16405;53.964;13.448;2024-03-08T09:24:01;101988.88;;;7.27;84.28
29433;BME280;16405;53.964;13.448;2024-03-08T09:26:34;101989.63;;;7.37;82.76
29433;BME280;16405;53.964;13.448;2024-03-08T09:29:00;101987.97;;;7.30;79.34
29433;BME280;16405;53.964;13.448;2024-03-08T09:31:29;101988.72;;;7.39;78.85
29433;BME280;16405;53.964;13.448;2024-03-08T09:34:02;101994.53;;;7.63;79.04
29433;BME280;16405;53.964;13.448;2024-03-08T09:36:31;101992.47;;;7.84;78.98
29433;BME280;16405;53.964;13.448;2024-03-08T09:38:58;102002.59;;;8.07;78.54
29433;BME280;16405;53.964;13.448;2024-03-08T09:41:29;101998.03;;;8.19;77.11
29433;BME280;16405;53.964;13.448;2024-03-08T09:44:00;101996.09;;;8.31;76.31
29433;BME280;16405;53.964;13.448;2024-03-08T09:46:26;102004.03;;;8.26;72.91
29433;BME280;16405;53.964;13.448;2024-03-08T09:48:58;102003.38;;;8.12;68.82
29433;BME280;16405;53.964;13.448;2024-03-08T09:51:28;102001.94;;;7.92;68.02
29433;BME280;16405;53.964;13.448;2024-03-08T09:54:02;101985.25;;;7.99;69.33
29433;BME280;16405;53.964;13.448;2024-03-08T09:56:32;101998.31;;;8.01;67.49
29433;BME280;16405;53.964;13.448;2024-03-08T09:59:10;101988.47;;;8.15;68.90
29433;BME280;16405;53.964;13.448;2024-03-08T10:01:51;101986.44;;;8.33;70.18
29433;BME280;16405;53.964;13.448;2024-03-08T10:04:30;101994.03;;;8.51;69.81
29433;BME280;16405;53.964;13.448;2024-03-08T10:07:04;102000.91;;;8.57;67.48
29433;BME280;16405;53.964;13.448;2024-03-08T10:09:30;102011.38;;;8.60;66.46
29433;BME280;16405;53.964;13.448;2024-03-08T10:11:59;101999.78;;;8.70;68.02
29433;BME280;16405;53.964;13.448;2024-03-08T10:14:31;101996.00;;;8.87;68.45
29433;BME280;16405;53.964;13.448;2024-03-08T10:16:59;102018.56;;;8.97;65.08
29433;BME280;16405;53.964;13.448;2024-03-08T10:19:28;102020.41;;;8.92;62.93
29433;BME280;16405;53.964;13.448;2024-03-08T10:22:00;102012.41;;;8.98;63.93
29433;BME280;16405;53.964;13.448;2024-03-08T10:24:26;102024.88;;;8.87;61.44
29433;BME280;16405;53.964;13.448;2024-03-08T10:27:04;102018.50;;;9.00;64.17
29433;BME280;16405;53.964;13.448;2024-03-08T10:29:33;102017.41;;;9.12;64.00
29433;BME280;16405;53.964;13.448;2024-03-08T10:32:02;102034.03;;;9.12;62.63
29433;BME280;16405;53.964;13.448;2024-03-08T10:34:30;102026.97;;;9.16;63.30
29433;BME280;16405;53.964;13.448;2024-03-08T10:37:04;102030.91;;;8.92;61.10
29433;BME280;16405;53.964;13.448;2024-03-08T10:39:37;102033.91;;;8.72;60.38
29433;BME280;16405;53.964;13.448;2024-03-08T10:42:10;102024.13;;;8.80;61.68
29433;BME280;16405;53.964;13.448;2024-03-08T10:44:46;102036.69;;;8.64;59.54
29433;BME280;16405;53.964;13.448;2024-03-08T10:47:28;102035.78;;;8.67;61.14
29433;BME280;16405;53.964;13.448;2024-03-08T10:50:17;102036.66;;;8.66;61.04
29433;BME280;16405;53.964;13.448;2024-03-08T10:52:59;102045.78;;;8.43;59.22
29433;BME280;16405;53.964;13.448;2024-03-08T10:55:28;102037.38;;;8.21;58.75
29433;BME280;16405;53.964;13.448;2024-03-08T10:57:54;102033.16;;;8.11;58.96
29433;BME280;16405;53.964;13.448;2024-03-08T11:00:25;102042.81;;;8.09;58.78
29433;BME280;16405;53.964;13.448;2024-03-08T11:02:57;102033.09;;;8.14;59.33
29433;BME280;16405;53.964;13.448;2024-03-08T11:05:42;102031.31;;;8.17;59.68
29433;BME280;16405;53.964;13.448;2024-03-08T11:08:18;102030.94;;;8.39;59.82
29433;BME280;16405;53.964;13.448;2024-03-08T11:10:53;102042.16;;;8.52;58.35
29433;BME280;16405;53.964;13.448;2024-03-08T11:13:50;102035.72;;;8.68;59.96
29433;BME280;16405;53.964;13.448;2024-03-08T11:21:33;102030.81;;;8.48;58.94
29433;BME280;16405;53.964;13.448;2024-03-08T11:24:06;102021.25;;;8.46;59.62
29433;BME280;16405;53.964;13.448;2024-03-08T11:26:45;102011.53;;;8.51;60.01
29433;BME280;16405;53.964;13.448;2024-03-08T11:29:33;102018.44;;;8.56;59.21
29433;BME280;16405;53.964;13.448;2024-03-08T11:32:15;102020.25;;;8.53;58.84
29433;BME280;16405;53.964;13.448;2024-03-08T11:34:54;102014.84;;;8.62;58.63
29433;BME280;16405;53.964;13.448;2024-03-08T11:37:22;102020.88;;;8.66;57.40
29433;BME280;16405;53.964;13.448;2024-03-08T11:39:52;102026.44;;;8.49;56.51
29433;BME280;16405;53.964;13.448;2024-03-08T11:42:21;102026.59;;;8.41;56.60
29433;BME280;16405;53.964;13.448;2024-03-08T11:44:50;102012.66;;;8.34;57.77
29433;BME280;16405;53.964;13.448;2024-03-08T11:47:16;102004.53;;;8.51;58.72
29433;BME280;16405;53.964;13.448;2024-03-08T11:49:42;102010.47;;;8.62;57.72
29433;BME280;16405;53.964;13.448;2024-03-08T11:52:17;102014.78;;;8.63;55.86
29433;BME280;16405;53.964;13.448;2024-03-08T11:54:54;102014.03;;;8.57;56.06
29433;BME280;16405;53.964;13.448;2024-03-08T11:57:23;102006.03;;;8.65;56.83
29433;BME280;16405;53.964;13.448;2024-03-08T11:59:53;102011.13;;;8.74;57.15
29433;BME280;16405;53.964;13.448;2024-03-08T12:02:22;102025.09;;;8.74;55.57
29433;BME280;16405;53.964;13.448;2024-03-08T12:04:57;102018.03;;;8.79;55.98
29433;BME280;16405;53.964;13.448;2024-03-08T12:07:26;102020.81;;;8.70;54.56
29433;BME280;16405;53.964;13.448;2024-03-08T12:10:20;102029.94;;;8.49;53.37
29433;BME280;16405;53.964;13.448;2024-03-08T12:12:49;102022.06;;;8.49;54.29
29433;BME280;16405;53.964;13.448;2024-03-08T12:15:18;102010.66;;;8.50;54.12
29433;BME280;16405;53.964;13.448;2024-03-08T12:17:49;102029.97;;;8.48;51.99
29433;BME280;16405;53.964;13.448;2024-03-08T12:20:35;102012.25;;;8.59;53.30
29433;BME280;16405;53.964;13.448;2024-03-08T12:23:01;102016.81;;;8.49;53.14
29433;BME280;16405;53.964;13.448;2024-03-08T12:25:33;102005.31;;;8.55;54.04
29433;BME280;16405;53.964;13.448;2024-03-08T12:28:13;101998.44;;;8.49;54.38
29433;BME280;16405;53.964;13.448;2024-03-08T12:30:49;101994.78;;;8.58;54.05
29433;BME280;16405;53.964;13.448;2024-03-08T12:33:18;101997.34;;;8.61;53.92
29433;BME280;16405;53.964;13.448;2024-03-08T12:35:52;101999.41;;;8.44;54.35
29433;BME280;16405;53.964;13.448;2024-03-08T12:38:28;101986.09;;;8.53;54.84
29433;BME280;16405;53.964;13.448;2024-03-08T12:41:00;101984.22;;;8.61;55.34
29433;BME280;16405;53.964;13.448;2024-03-08T12:43:29;101985.03;;;8.65;55.29
29433;BME280;16405;53.964;13.448;2024-03-08T12:45:56;101990.50;;;8.52;53.84
29433;BME280;16405;53.964;13.448;2024-03-08T12:48:22;101991.25;;;8.59;53.78
29433;BME280;16405;53.964;13.448;2024-03-08T12:50:47;101996.59;;;8.53;52.19
29433;BME280;16405;53.964;13.448;2024-03-08T12:53:14;102005.44;;;8.49;51.94
29433;BME280;16405;53.964;13.448;2024-03-08T12:55:40;102007.25;;;8.47;52.10
29433;BME280;16405;53.964;13.448;2024-03-08T12:58:13;102005.50;;;8.46;52.64
29433;BME280;16405;53.964;13.448;2024-03-08T13:00:39;101994.06;;;8.50;54.85
29433;BME280;16405;53.964;13.448;2024-03-08T13:03:08;101977.13;;;8.66;55.82
29433;BME280;16405;53.964;13.448;2024-03-08T13:05:43;101975.22;;;8.74;55.95
29433;BME280;16405;53.964;13.448;2024-03-08T13:08:09;101971.44;;;8.89;56.34
29433;BME280;16405;53.964;13.448;2024-03-08T13:10:42;101967.84;;;8.93;56.74
29433;BME280;16405;53.964;13.448;2024-03-08T13:13:12;101952.81;;;9.01;57.49
29433;BME280;16405;53.964;13.448;2024-03-08T13:15:48;101946.69;;;9.01;57.77
29433;BME280;16405;53.964;13.448;2024-03-08T13:18:14;101942.22;;;9.04;57.87
29433;BME280;16405;53.964;13.448;2024-03-08T13:20:41;101943.88;;;9.10;57.31
29433;BME280;16405;53.964;13.448;2024-03-08T13:23:12;101936.84;;;9.09;57.46
29433;BME280;16405;53.964;13.448;2024-03-08T13:25:40;101932.53;;;9.08;57.76
29433;BME280;16405;53.964;13.448;2024-03-08T13:28:06;101922.44;;;8.88;58.97
29433;BME280;16405;53.964;13.448;2024-03-08T13:30:32;101932.75;;;8.96;58.35
29433;BME280;16405;53.964;13.448;2024-03-08T13:32:58;101918.66;;;9.00;58.85
29433;BME280;16405;53.964;13.448;2024-03-08T13:35:27;101928.94;;;9.11;58.69
29433;BME280;16405;53.964;13.448;2024-03-08T13:37:55;101931.56;;;9.12;58.02
29433;BME280;16405;53.964;13.448;2024-03-08T13:40:21;101927.16;;;9.13;58.22
29433;BME280;16405;53.964;13.448;2024-03-08T13:42:48;101920.31;;;9.06;58.17
29433;BME280;16405;53.964;13.448;2024-03-08T13:45:26;101916.91;;;9.00;58.46
29433;BME280;16405;53.964;13.448;2024-03-08T13:47:53;101911.63;;;9.02;58.45